MDT,Max TemperatureF,Mean TemperatureF,Min TemperatureF,Max Dew PointF,MeanDew PointF,Min DewpointF,Max Humidity, Mean Humidity, Min Humidity, Max Sea Level PressureIn, Mean Sea Level PressureIn, Min Sea Level PressureIn, Max VisibilityMiles, Mean VisibilityMiles, Min VisibilityMiles, Max Wind SpeedMPH, Mean Wind SpeedMPH, Max Gust SpeedMPH,PrecipitationIn, CloudCover, Events, WindDirDegrees
2012-10-1,69,51,33,43,35,28,93,55,25,30.30,30.12,29.77,10,10,10,18,9,22,0.00,0,,201
2012-10-2,69,58,48,39,34,28,54,39,28,29.88,29.77,29.68,10,10,10,22,11,26,0.00,0,,314
2012-10-3,50,42,33,37,34,30,93,84,58,30.40,30.15,29.88,10,10,3,23,16,30,0.78,7,Thunderstorm,356
2012-10-4,42,35,28,34,28,23,93,75,49,30.41,30.39,30.37,10,10,10,14,8,18,0.02,5,,335
2012-10-5,42,33,24,27,22,18,93,67,42,30.42,30.39,30.37,10,10,10,16,6,22,0.00,4,,340
2012-10-6,46,32,19,27,20,14,86,64,37,30.41,30.29,30.06,10,10,10,17,6,23,0.00,0,,231
2012-10-7,59,42,26,37,30,19,86,57,38,30.06,29.89,29.69,10,10,10,17,7,26,0.00,2,,256
2012-10-8,57,47,37,39,33,23,76,56,43,29.95,29.81,29.69,10,10,10,23,16,32,0.00,3,,308
2012-10-9,46,36,26,27,22,18,86,57,32,30.09,30.04,29.95,10,10,10,22,12,28,0.00,3,,305
2012-10-10,68,50,33,36,31,27,87,58,28,30.10,29.90,29.80,10,10,10,22,10,28,0.00,2,,246
2012-10-11,39,36,33,32,27,23,81,69,52,30.34,30.24,30.12,10,10,9,18,8,23,0.00,7,,70
2012-10-12,66,48,30,37,32,27,93,64,32,30.12,29.82,29.65,10,10,10,17,9,20,0.00,0,,191
2012-10-13,62,50,37,37,35,32,87,55,36,29.96,29.82,29.66,10,10,10,14,7,,0.00,1,,302
2012-10-14,68,56,44,39,37,34,76,51,28,30.01,29.94,29.82,10,10,10,23,9,30,0.00,2,,266
2012-10-15,71,60,48,50,41,36,88,57,29,29.81,29.73,29.68,10,10,9,23,10,25,0.04,4,,242
2012-10-16,53,48,44,52,44,36,94,84,71,29.70,29.46,29.30,10,10,7,33,9,45,0.25,3,,220
2012-10-17,51,44,37,37,26,18,93,51,28,29.82,29.63,29.39,10,10,6,43,31,56,0.08,3,,297
2012-10-18,48,38,28,30,27,21,86,64,46,30.07,30.00,29.83,10,10,10,36,24,45,0.00,4,,311
2012-10-19,57,40,24,32,26,19,86,64,33,30.02,29.78,29.57,10,10,10,13,5,,0.00,0,,198
2012-10-20,69,55,41,43,35,30,76,50,31,29.76,29.57,29.51,10,10,10,20,8,24,0.00,3,,272
2012-10-21,50,44,39,34,29,27,70,53,40,30.01,29.92,29.77,10,10,10,14,7,16,0.00,5,,42
2012-10-22,44,40,35,37,34,32,93,81,61,30.02,29.88,29.67,10,10,5,18,12,25,0.24,8,,97
2012-10-23,44,36,28,39,31,21,93,78,57,29.94,29.75,29.60,10,10,10,18,9,26,0.00,3,,302
2012-10-24,35,30,24,25,21,18,86,71,56,30.15,30.05,29.94,10,10,8,18,10,23,0.00,4,,290
2012-10-25,32,29,26,21,19,16,74,66,59,30.36,30.25,30.15,10,10,10,23,17,29,0.00,8,,305
2012-10-26,35,28,21,18,15,12,80,60,41,30.39,30.30,30.17,10,10,10,18,10,25,0.00,5,,281
2012-10-27,32,28,24,23,21,18,86,77,64,30.18,30.15,30.13,10,10,5,15,11,20,0.00,7,,56
2012-10-28,41,34,26,32,26,21,87,77,61,30.13,29.97,29.88,10,10,10,13,8,16,0.00,6,,97
2012-10-29,50,39,28,41,34,27,100,82,62,29.95,29.92,29.90,10,9,3,7,2,,0.00,3,,145
2012-10-30,59,47,35,46,39,32,100,77,55,30.01,29.97,29.93,10,10,9,9,6,,0.00,1,,195
2012-10-31,44,38,33,37,34,30,93,80,66,30.11,30.04,29.91,10,10,1,17,9,21,0.00,6,,30